sensor_id;sensor_type;location;lat;lon;timestamp;P1;durP1;ratioP1;P2;durP2;ratioP2
68923;SDS011;55961;52.156;20.942;2023-08-21T00:01:18;21.48;;;16.88;;
68923;SDS011;55961;52.156;20.942;2023-08-21T00:03:44;21.75;;;16.58;;
68923;SDS011;55961;52.156;20.942;2023-08-21T00:06:10;18.50;;;16.42;;
68923;SDS011;55961;52.156;20.942;2023-08-21T00:08:36;21.97;;;16.70;;
68923;SDS011;55961;52.156;20.942;2023-08-21T00:11:02;18.25;;;16.17;;
68923;SDS011;55961;52.156;20.942;2023-08-21T00:13:28;20.08;;;16.15;;
68923;SDS011;55961;52.156;20.942;2023-08-21T00:15:54;18.97;;;16.27;;
68923;SDS011;55961;52.156;20.942;2023-08-21T00:18:21;18.27;;;15.82;;
68923;SDS011;55961;52.156;20.942;2023-08-21T00:20:47;19.85;;;16.25;;
68923;SDS011;55961;52.156;20.942;2023-08-21T00:23:13;20.27;;;16.67;;
68923;SDS011;55961;52.156;20.942;2023-08-21T00:25:39;21.65;;;17.40;;
68923;SDS011;55961;52.156;20.942;2023-08-21T00:28:05;18.13;;;15.77;;
68923;SDS011;55961;52.156;20.942;2023-08-21T00:30:31;19.90;;;15.52;;
68923;SDS011;55961;52.156;20.942;2023-08-21T00:32:57;23.98;;;17.00;;
68923;SDS011;55961;52.156;20.942;2023-08-21T00:35:23;20.77;;;15.98;;
68923;SDS011;55961;52.156;20.942;2023-08-21T00:37:49;20.77;;;17.13;;
68923;SDS011;55961;52.156;20.942;2023-08-21T00:40:15;19.13;;;15.97;;
68923;SDS011;55961;52.156;20.942;2023-08-21T00:42:41;21.13;;;17.63;;
68923;SDS011;55961;52.156;20.942;2023-08-21T00:45:07;18.90;;;16.13;;
68923;SDS011;55961;52.156;20.942;2023-08-21T00:47:34;21.93;;;16.87;;
68923;SDS011;55961;52.156;20.942;2023-08-21T00:50:01;18.92;;;16.80;;
68923;SDS011;55961;52.156;20.942;2023-08-21T00:52:27;19.33;;;16.55;;
68923;SDS011;55961;52.156;20.942;2023-08-21T00:54:53;20.83;;;16.77;;
68923;SDS011;55961;52.156;20.942;2023-08-21T00:57:20;20.02;;;16.88;;
68923;SDS011;55961;52.156;20.942;2023-08-21T00:59:48;22.00;;;17.80;;
68923;SDS011;55961;52.156;20.942;2023-08-21T01:02:14;22.85;;;17.27;;
68923;SDS011;55961;52.156;20.942;2023-08-21T01:04:40;21.92;;;16.77;;
68923;SDS011;55961;52.156;20.942;2023-08-21T01:07:06;22.67;;;17.42;;
68923;SDS011;55961;52.156;20.942;2023-08-21T01:09:45;20.83;;;16.60;;
68923;SDS011;55961;52.156;20.942;2023-08-21T01:12:23;19.77;;;16.98;;
68923;SDS011;55961;52.156;20.942;2023-08-21T01:15:02;21.13;;;17.45;;
68923;SDS011;55961;52.156;20.942;2023-08-21T01:17:32;18.58;;;16.55;;
68923;SDS011;55961;52.156;20.942;2023-08-21T01:20:01;22.00;;;17.73;;
68923;SDS011;55961;52.156;20.942;2023-08-21T01:22:35;21.07;;;17.13;;
68923;SDS011;55961;52.156;20.942;2023-08-21T01:25:02;21.83;;;17.13;;
68923;SDS011;55961;52.156;20.942;2023-08-21T01:27:28;19.42;;;16.70;;
68923;SDS011;55961;52.156;20.942;2023-08-21T01:29:54;20.58;;;16.90;;
68923;SDS011;55961;52.156;20.942;2023-08-21T01:32:26;21.10;;;16.35;;
68923;SDS011;55961;52.156;20.942;2023-08-21T01:34:58;22.67;;;17.60;;
68923;SDS011;55961;52.156;20.942;2023-08-21T01:37:25;21.50;;;17.05;;
68923;SDS011;55961;52.156;20.942;2023-08-21T01:39:51;23.02;;;17.30;;
68923;SDS011;55961;52.156;20.942;2023-08-21T01:42:17;23.67;;;17.35;;
68923;SDS011;55961;52.156;20.942;2023-08-21T01:44:43;20.63;;;17.20;;
68923;SDS011;55961;52.156;20.942;2023-08-21T01:47:12;25.52;;;17.42;;
68923;SDS011;55961;52.156;20.942;2023-08-21T01:49:38;21.17;;;17.15;;
68923;SDS011;55961;52.156;20.942;2023-08-21T01:52:04;22.92;;;18.08;;
68923;SDS011;55961;52.156;20.942;2023-08-21T01:54:30;24.20;;;16.47;;
68923;SDS011;55961;52.156;20.942;2023-08-21T01:56:56;27.35;;;18.45;;
68923;SDS011;55961;52.156;20.942;2023-08-21T01:59:22;24.70;;;17.15;;
68923;SDS011;55961;52.156;20.942;2023-08-21T02:01:49;20.30;;;16.80;;
68923;SDS011;55961;52.156;20.942;2023-08-21T02:04:15;21.98;;;16.75;;
68923;SDS011;55961;52.156;20.942;2023-08-21T02:06:41;20.45;;;16.98;;
68923;SDS011;55961;52.156;20.942;2023-08-21T02:09:06;22.97;;;18.27;;
68923;SDS011;55961;52.156;20.942;2023-08-21T02:11:33;22.38;;;17.33;;
68923;SDS011;55961;52.156;20.942;2023-08-21T02:13:58;23.75;;;18.10;;
68923;SDS011;55961;52.156;20.942;2023-08-21T02:16:24;25.30;;;16.92;;
68923;SDS011;55961;52.156;20.942;2023-08-21T02:18:50;20.53;;;17.07;;
68923;SDS011;55961;52.156;20.942;2023-08-21T02:21:16;23.10;;;17.70;;
68923;SDS011;55961;52.156;20.942;2023-08-21T02:23:42;20.73;;;17.05;;
68923;SDS011;55961;52.156;20.942;2023-08-21T02:26:08;23.20;;;18.52;;
68923;SDS011;55961;52.156;20.942;2023-08-21T02:28:34;23.33;;;17.20;;
68923;SDS011;55961;52.156;20.942;2023-08-21T02:31:00;25.17;;;17.73;;
68923;SDS011;55961;52.156;20.942;2023-08-21T02:33:26;19.90;;;17.07;;
68923;SDS011;55961;52.156;20.942;2023-08-21T02:35:52;23.00;;;17.27;;
68923;SDS011;55961;52.156;20.942;2023-08-21T02:38:17;21.40;;;17.75;;
68923;SDS011;55961;52.156;20.942;2023-08-21T02:40:43;21.63;;;17.30;;
68923;SDS011;55961;52.156;20.942;2023-08-21T02:43:09;23.97;;;18.17;;
68923;SDS011;55961;52.156;20.942;2023-08-21T02:45:35;21.77;;;17.30;;
68923;SDS011;55961;52.156;20.942;2023-08-21T02:48:01;23.90;;;17.23;;
68923;SDS011;55961;52.156;20.942;2023-08-21T02:50:27;20.73;;;17.77;;
68923;SDS011;55961;52.156;20.942;2023-08-21T02:52:53;20.85;;;17.40;;
68923;SDS011;55961;52.156;20.942;2023-08-21T02:55:19;21.33;;;17.30;;
68923;SDS011;55961;52.156;20.942;2023-08-21T02:57:46;21.40;;;17.00;;
68923;SDS011;55961;52.156;20.942;2023-08-21T03:00:12;22.10;;;17.17;;
68923;SDS011;55961;52.156;20.942;2023-08-21T03:02:38;22.08;;;17.98;;
68923;SDS011;55961;52.156;20.942;2023-08-21T03:05:08;24.30;;;17.80;;
68923;SDS011;55961;52.156;20.942;2023-08-21T03:07:34;21.58;;;17.25;;
68923;SDS011;55961;52.156;20.942;2023-08-21T03:10:00;22.83;;;17.83;;
68923;SDS011;55961;52.156;20.942;2023-08-21T03:12:27;22.98;;;17.05;;
68923;SDS011;55961;52.156;20.942;2023-08-21T03:14:54;24.33;;;17.92;;
68923;SDS011;55961;52.156;20.942;2023-08-21T03:17:19;24.42;;;17.75;;
68923;SDS011;55961;52.156;20.942;2023-08-21T03:19:45;23.93;;;18.23;;
68923;SDS011;55961;52.156;20.942;2023-08-21T03:22:11;24.08;;;17.75;;
68923;SDS011;55961;52.156;20.942;2023-08-21T03:24:37;23.40;;;18.05;;
68923;SDS011;55961;52.156;20.942;2023-08-21T03:27:03;21.80;;;17.20;;
68923;SDS011;55961;52.156;20.942;2023-08-21T03:29:29;23.33;;;18.13;;
68923;SDS011;55961;52.156;20.942;2023-08-21T03:31:55;22.63;;;17.85;;
68923;SDS011;55961;52.156;20.942;2023-08-21T03:34:22;26.43;;;18.80;;
68923;SDS011;55961;52.156;20.942;2023-08-21T03:36:48;22.25;;;18.30;;
68923;SDS011;55961;52.156;20.942;2023-08-21T03:39:14;27.08;;;18.90;;
68923;SDS011;55961;52.156;20.942;2023-08-21T03:41:40;23.20;;;18.40;;
68923;SDS011;55961;52.156;20.942;2023-08-21T03:44:06;24.33;;;19.23;;
68923;SDS011;55961;52.156;20.942;2023-08-21T03:46:32;24.70;;;18.20;;
68923;SDS011;55961;52.156;20.942;2023-08-21T03:48:58;28.42;;;18.63;;
68923;SDS011;55961;52.156;20.942;2023-08-21T03:51:23;21.58;;;17.65;;
68923;SDS011;55961;52.156;20.942;2023-08-21T03:53:50;23.43;;;18.87;;
68923;SDS011;55961;52.156;20.942;2023-08-21T03:56:15;23.00;;;18.50;;
68923;SDS011;55961;52.156;20.942;2023-08-21T03:58:41;25.35;;;18.42;;
68923;SDS011;55961;52.156;20.942;2023-08-21T04:01:07;23.30;;;17.73;;
68923;SDS011;55961;52.156;20.942;2023-08-21T04:03:33;26.67;;;18.75;;
68923;SDS011;55961;52.156;20.942;2023-08-21T04:05:59;22.15;;;18.40;;
68923;SDS011;55961;52.156;20.942;2023-08-21T04:08:26;25.03;;;17.90;;
68923;SDS011;55961;52.156;20.942;2023-08-21T04:10:52;25.42;;;18.55;;
68923;SDS011;55961;52.156;20.942;2023-08-21T04:13:18;24.10;;;19.42;;
68923;SDS011;55961;52.156;20.942;2023-08-21T04:15:45;23.40;;;17.40;;
68923;SDS011;55961;52.156;20.942;2023-08-21T04:18:11;24.63;;;19.27;;
68923;SDS011;55961;52.156;20.942;2023-08-21T04:20:37;28.85;;;18.83;;
68923;SDS011;55961;52.156;20.942;2023-08-21T04:23:03;25.05;;;18.77;;
68923;SDS011;55961;52.156;20.942;2023-08-21T04:25:29;23.60;;;19.27;;
68923;SDS011;55961;52.156;20.942;2023-08-21T04:27:55;24.55;;;18.60;;
68923;SDS011;55961;52.156;20.942;2023-08-21T04:30:21;26.08;;;19.27;;
68923;SDS011;55961;52.156;20.942;2023-08-21T04:32:47;23.35;;;19.15;;
68923;SDS011;55961;52.156;20.942;2023-08-21T04:35:13;25.13;;;18.00;;
68923;SDS011;55961;52.156;20.942;2023-08-21T04:37:45;23.85;;;18.38;;
68923;SDS011;55961;52.156;20.942;2023-08-21T04:40:12;25.48;;;17.77;;
68923;SDS011;55961;52.156;20.942;2023-08-21T04:42:38;23.17;;;18.27;;
68923;SDS011;55961;52.156;20.942;2023-08-21T04:45:04;23.77;;;18.03;;
68923;SDS011;55961;52.156;20.942;2023-08-21T04:47:31;23.50;;;17.67;;
68923;SDS011;55961;52.156;20.942;2023-08-21T04:49:57;24.65;;;18.05;;
68923;SDS011;55961;52.156;20.942;2023-08-21T04:52:23;23.00;;;18.30;;
68923;SDS011;55961;52.156;20.942;2023-08-21T04:54:50;22.63;;;17.63;;
68923;SDS011;55961;52.156;20.942;2023-08-21T04:57:16;26.05;;;18.65;;
68923;SDS011;55961;52.156;20.942;2023-08-21T04:59:43;26.35;;;18.63;;
68923;SDS011;55961;52.156;20.942;2023-08-21T05:02:09;24.10;;;19.48;;
68923;SDS011;55961;52.156;20.942;2023-08-21T05:04:36;25.03;;;17.90;;
68923;SDS011;55961;52.156;20.942;2023-08-21T05:07:02;24.65;;;18.80;;
68923;SDS011;55961;52.156;20.942;2023-08-21T05:09:29;23.40;;;18.45;;
68923;SDS011;55961;52.156;20.942;2023-08-21T05:11:56;25.85;;;18.90;;
68923;SDS011;55961;52.156;20.942;2023-08-21T05:14:22;24.98;;;17.92;;
68923;SDS011;55961;52.156;20.942;2023-08-21T05:16:48;30.33;;;17.93;;
68923;SDS011;55961;52.156;20.942;2023-08-21T05:19:15;23.45;;;18.85;;
68923;SDS011;55961;52.156;20.942;2023-08-21T05:21:41;27.60;;;19.27;;
68923;SDS011;55961;52.156;20.942;2023-08-21T05:24:07;23.73;;;18.20;;
68923;SDS011;55961;52.156;20.942;2023-08-21T05:26:35;24.52;;;18.33;;
68923;SDS011;55961;52.156;20.942;2023-08-21T05:29:01;22.20;;;17.10;;
68923;SDS011;55961;52.156;20.942;2023-08-21T05:31:28;24.50;;;18.45;;
68923;SDS011;55961;52.156;20.942;2023-08-21T05:33:54;24.17;;;18.00;;
68923;SDS011;55961;52.156;20.942;2023-08-21T05:36:20;23.05;;;17.52;;
68923;SDS011;55961;52.156;20.942;2023-08-21T05:38:45;25.37;;;18.17;;
68923;SDS011;55961;52.156;20.942;2023-08-21T05:41:13;26.42;;;18.30;;
68923;SDS011;55961;52.156;20.942;2023-08-21T05:43:39;25.38;;;18.42;;
68923;SDS011;55961;52.156;20.942;2023-08-21T05:46:07;24.60;;;18.95;;
68923;SDS011;55961;52.156;20.942;2023-08-21T05:48:33;24.00;;;17.95;;
68923;SDS011;55961;52.156;20.942;2023-08-21T05:51:00;24.33;;;18.47;;
68923;SDS011;55961;52.156;20.942;2023-08-21T05:53:25;27.05;;;18.75;;
68923;SDS011;55961;52.156;20.942;2023-08-21T05:55:52;27.20;;;18.90;;
68923;SDS011;55961;52.156;20.942;2023-08-21T05:58:19;24.92;;;19.00;;
68923;SDS011;55961;52.156;20.942;2023-08-21T06:00:46;26.37;;;18.70;;
68923;SDS011;55961;52.156;20.942;2023-08-21T06:03:12;23.95;;;18.27;;
68923;SDS011;55961;52.156;20.942;2023-08-21T06:05:39;25.38;;;19.45;;
68923;SDS011;55961;52.156;20.942;2023-08-21T06:08:05;29.67;;;19.00;;
68923;SDS011;55961;52.156;20.942;2023-08-21T06:10:31;24.88;;;19.17;;
68923;SDS011;55961;52.156;20.942;2023-08-21T06:12:57;23.53;;;18.97;;
68923;SDS011;55961;52.156;20.942;2023-08-21T06:15:23;25.88;;;18.05;;
68923;SDS011;55961;52.156;20.942;2023-08-21T06:17:49;22.08;;;18.05;;
68923;SDS011;55961;52.156;20.942;2023-08-21T06:20:15;26.00;;;18.80;;
68923;SDS011;55961;52.156;20.942;2023-08-21T06:22:41;23.77;;;19.20;;
68923;SDS011;55961;52.156;20.942;2023-08-21T06:25:08;26.15;;;20.48;;
68923;SDS011;55961;52.156;20.942;2023-08-21T06:27:34;27.42;;;19.60;;
68923;SDS011;55961;52.156;20.942;2023-08-21T06:30:00;25.45;;;19.23;;
68923;SDS011;55961;52.156;20.942;2023-08-21T06:32:25;24.83;;;19.03;;
68923;SDS011;55961;52.156;20.942;2023-08-21T06:34:52;24.85;;;20.42;;
68923;SDS011;55961;52.156;20.942;2023-08-21T06:37:17;25.55;;;19.20;;
68923;SDS011;55961;52.156;20.942;2023-08-21T06:39:43;26.80;;;19.20;;
68923;SDS011;55961;52.156;20.942;2023-08-21T06:42:09;25.85;;;18.92;;
68923;SDS011;55961;52.156;20.942;2023-08-21T06:44:35;23.48;;;19.88;;
68923;SDS011;55961;52.156;20.942;2023-08-21T06:47:01;24.63;;;18.73;;
68923;SDS011;55961;52.156;20.942;2023-08-21T06:49:27;24.33;;;17.83;;
68923;SDS011;55961;52.156;20.942;2023-08-21T06:51:53;27.27;;;19.83;;
68923;SDS011;55961;52.156;20.942;2023-08-21T06:54:19;25.17;;;19.30;;
68923;SDS011;55961;52.156;20.942;2023-08-21T06:56:45;29.13;;;18.73;;
68923;SDS011;55961;52.156;20.942;2023-08-21T06:59:11;26.15;;;18.50;;
68923;SDS011;55961;52.156;20.942;2023-08-21T07:01:36;25.57;;;19.00;;
68923;SDS011;55961;52.156;20.942;2023-08-21T07:04:02;24.30;;;19.30;;
68923;SDS011;55961;52.156;20.942;2023-08-21T07:06:29;25.67;;;19.75;;
68923;SDS011;55961;52.156;20.942;2023-08-21T07:08:56;26.42;;;19.17;;
68923;SDS011;55961;52.156;20.942;2023-08-21T07:11:22;28.60;;;19.85;;
68923;SDS011;55961;52.156;20.942;2023-08-21T07:13:48;28.33;;;19.57;;
68923;SDS011;55961;52.156;20.942;2023-08-21T07:16:14;26.70;;;19.58;;
68923;SDS011;55961;52.156;20.942;2023-08-21T07:18:40;24.80;;;20.23;;
68923;SDS011;55961;52.156;20.942;2023-08-21T07:21:06;24.33;;;19.05;;
68923;SDS011;55961;52.156;20.942;2023-08-21T07:23:32;22.70;;;16.27;;
68923;SDS011;55961;52.156;20.942;2023-08-21T07:25:59;25.90;;;20.13;;
68923;SDS011;55961;52.156;20.942;2023-08-21T07:28:26;27.17;;;20.42;;
68923;SDS011;55961;52.156;20.942;2023-08-21T07:30:55;27.38;;;18.75;;
68923;SDS011;55961;52.156;20.942;2023-08-21T07:33:22;28.17;;;19.85;;
68923;SDS011;55961;52.156;20.942;2023-08-21T07:35:56;25.50;;;18.67;;
68923;SDS011;55961;52.156;20.942;2023-08-21T07:38:23;25.92;;;17.83;;
68923;SDS011;55961;52.156;20.942;2023-08-21T07:40:48;28.33;;;20.55;;
68923;SDS011;55961;52.156;20.942;2023-08-21T07:43:14;26.10;;;20.97;;
68923;SDS011;55961;52.156;20.942;2023-08-21T07:45:40;27.00;;;20.15;;
68923;SDS011;55961;52.156;20.942;2023-08-21T07:48:06;26.70;;;20.60;;
68923;SDS011;55961;52.156;20.942;2023-08-21T07:50:32;23.83;;;19.47;;
68923;SDS011;55961;52.156;20.942;2023-08-21T07:52:58;24.25;;;19.63;;
68923;SDS011;55961;52.156;20.942;2023-08-21T07:55:24;26.23;;;20.30;;
68923;SDS011;55961;52.156;20.942;2023-08-21T07:57:50;28.08;;;21.08;;
68923;SDS011;55961;52.156;20.942;2023-08-21T08:00:16;28.10;;;21.63;;
68923;SDS011;55961;52.156;20.942;2023-08-21T08:02:42;22.65;;;19.35;;
68923;SDS011;55961;52.156;20.942;2023-08-21T08:05:08;27.90;;;20.23;;
68923;SDS011;55961;52.156;20.942;2023-08-21T08:07:34;24.77;;;18.35;;
68923;SDS011;55961;52.156;20.942;2023-08-21T08:10:00;26.00;;;20.07;;
68923;SDS011;55961;52.156;20.942;2023-08-21T08:12:26;24.55;;;20.13;;
68923;SDS011;55961;52.156;20.942;2023-08-21T08:14:52;23.80;;;19.17;;
68923;SDS011;55961;52.156;20.942;2023-08-21T08:17:18;22.70;;;18.83;;
68923;SDS011;55961;52.156;20.942;2023-08-21T08:19:44;25.75;;;19.35;;
68923;SDS011;55961;52.156;20.942;2023-08-21T08:22:10;21.23;;;18.00;;
68923;SDS011;55961;52.156;20.942;2023-08-21T08:24:36;24.97;;;19.00;;
68923;SDS011;55961;52.156;20.942;2023-08-21T08:27:02;22.50;;;17.67;;
68923;SDS011;55961;52.156;20.942;2023-08-21T08:29:27;19.80;;;16.40;;
68923;SDS011;55961;52.156;20.942;2023-08-21T08:31:54;22.30;;;17.42;;
68923;SDS011;55961;52.156;20.942;2023-08-21T08:34:19;24.77;;;17.00;;
68923;SDS011;55961;52.156;20.942;2023-08-21T08:36:46;19.83;;;16.42;;
68923;SDS011;55961;52.156;20.942;2023-08-21T08:39:11;20.38;;;16.63;;
68923;SDS011;55961;52.156;20.942;2023-08-21T08:44:08;20.83;;;16.95;;
68923;SDS011;55961;52.156;20.942;2023-08-21T08:46:35;21.73;;;16.60;;
68923;SDS011;55961;52.156;20.942;2023-08-21T08:49:03;23.15;;;16.35;;
68923;SDS011;55961;52.156;20.942;2023-08-21T08:51:30;18.33;;;15.35;;
68923;SDS011;55961;52.156;20.942;2023-08-21T08:53:59;19.13;;;14.73;;
68923;SDS011;55961;52.156;20.942;2023-08-21T08:56:25;18.92;;;14.90;;
68923;SDS011;55961;52.156;20.942;2023-08-21T08:58:51;18.45;;;13.77;;
68923;SDS011;55961;52.156;20.942;2023-08-21T09:01:17;17.00;;;12.90;;
68923;SDS011;55961;52.156;20.942;2023-08-21T09:03:43;17.00;;;13.90;;
68923;SDS011;55961;52.156;20.942;2023-08-21T09:06:10;15.40;;;12.98;;
68923;SDS011;55961;52.156;20.942;2023-08-21T09:08:36;15.87;;;12.87;;
68923;SDS011;55961;52.156;20.942;2023-08-21T09:11:02;14.57;;;12.30;;
68923;SDS011;55961;52.156;20.942;2023-08-21T09:13:31;15.82;;;11.48;;
68923;SDS011;55961;52.156;20.942;2023-08-21T09:15:58;13.77;;;11.68;;
68923;SDS011;55961;52.156;20.942;2023-08-21T09:18:24;14.55;;;11.30;;
68923;SDS011;55961;52.156;20.942;2023-08-21T09:20:50;13.48;;;10.85;;
68923;SDS011;55961;52.156;20.942;2023-08-21T09:23:17;13.50;;;11.77;;
68923;SDS011;55961;52.156;20.942;2023-08-21T09:25:47;13.40;;;11.60;;
68923;SDS011;55961;52.156;20.942;2023-08-21T09:28:13;12.80;;;9.60;;
68923;SDS011;55961;52.156;20.942;2023-08-21T09:30:50;11.50;;;8.55;;
68923;SDS011;55961;52.156;20.942;2023-08-21T09:33:17;10.23;;;9.03;;
68923;SDS011;55961;52.156;20.942;2023-08-21T09:35:44;12.73;;;10.18;;
68923;SDS011;55961;52.156;20.942;2023-08-21T09:38:10;10.07;;;7.40;;
68923;SDS011;55961;52.156;20.942;2023-08-21T09:40:40;9.48;;;8.05;;
68923;SDS011;55961;52.156;20.942;2023-08-21T09:43:08;11.85;;;8.45;;
68923;SDS011;55961;52.156;20.942;2023-08-21T09:45:36;8.90;;;7.83;;
68923;SDS011;55961;52.156;20.942;2023-08-21T09:48:03;11.95;;;8.18;;
68923;SDS011;55961;52.156;20.942;2023-08-21T09:50:30;9.32;;;7.70;;
68923;SDS011;55961;52.156;20.942;2023-08-21T09:52:57;8.57;;;7.35;;
68923;SDS011;55961;52.156;20.942;2023-08-21T09:55:24;8.57;;;7.05;;
68923;SDS011;55961;52.156;20.942;2023-08-21T09:57:58;9.57;;;7.23;;
68923;SDS011;55961;52.156;20.942;2023-08-21T10:00:35;9.63;;;7.47;;
68923;SDS011;55961;52.156;20.942;2023-08-21T10:03:03;7.95;;;6.38;;
68923;SDS011;55961;52.156;20.942;2023-08-21T10:05:33;9.80;;;7.30;;
68923;SDS011;55961;52.156;20.942;2023-08-21T10:08:02;9.55;;;7.38;;
68923;SDS011;55961;52.156;20.942;2023-08-21T10:10:29;8.47;;;7.30;;
68923;SDS011;55961;52.156;20.942;2023-08-21T10:12:57;9.30;;;7.75;;
68923;SDS011;55961;52.156;20.942;2023-08-21T10:15:24;9.82;;;6.90;;
68923;SDS011;55961;52.156;20.942;2023-08-21T10:17:51;8.05;;;6.75;;
68923;SDS011;55961;52.156;20.942;2023-08-21T10:20:22;9.65;;;7.25;;
68923;SDS011;55961;52.156;20.942;2023-08-21T10:22:53;8.57;;;7.00;;
68923;SDS011;55961;52.156;20.942;2023-08-21T10:25:21;11.18;;;6.80;;
68923;SDS011;55961;52.156;20.942;2023-08-21T10:27:53;8.43;;;7.10;;
68923;SDS011;55961;52.156;20.942;2023-08-21T10:30:25;8.35;;;6.63;;
68923;SDS011;55961;52.156;20.942;2023-08-21T10:32:57;8.02;;;6.60;;
68923;SDS011;55961;52.156;20.942;2023-08-21T10:35:24;7.83;;;6.00;;
68923;SDS011;55961;52.156;20.942;2023-08-21T10:38:36;8.40;;;5.90;;
68923;SDS011;55961;52.156;20.942;2023-08-21T10:41:04;8.45;;;5.70;;
68923;SDS011;55961;52.156;20.942;2023-08-21T10:43:36;6.75;;;5.30;;
68923;SDS011;55961;52.156;20.942;2023-08-21T10:46:06;7.10;;;5.22;;
68923;SDS011;55961;52.156;20.942;2023-08-21T10:48:34;7.50;;;5.43;;
68923;SDS011;55961;52.156;20.942;2023-08-21T10:51:01;7.57;;;5.30;;
68923;SDS011;55961;52.156;20.942;2023-08-21T10:53:32;7.03;;;5.60;;
68923;SDS011;55961;52.156;20.942;2023-08-21T10:56:02;7.85;;;5.32;;
68923;SDS011;55961;52.156;20.942;2023-08-21T10:58:41;6.45;;;4.93;;
68923;SDS011;55961;52.156;20.942;2023-08-21T11:01:07;6.27;;;5.27;;
68923;SDS011;55961;52.156;20.942;2023-08-21T11:03:34;7.15;;;4.97;;
68923;SDS011;55961;52.156;20.942;2023-08-21T11:06:04;7.68;;;4.63;;
68923;SDS011;55961;52.156;20.942;2023-08-21T11:08:32;5.88;;;4.88;;
68923;SDS011;55961;52.156;20.942;2023-08-21T11:10:59;7.45;;;4.90;;
68923;SDS011;55961;52.156;20.942;2023-08-21T11:13:26;6.60;;;4.93;;
68923;SDS011;55961;52.156;20.942;2023-08-21T11:18:35;5.90;;;4.40;;
68923;SDS011;55961;52.156;20.942;2023-08-21T11:21:07;5.30;;;4.00;;
68923;SDS011;55961;52.156;20.942;2023-08-21T11:23:40;6.50;;;4.30;;
68923;SDS011;55961;52.156;20.942;2023-08-21T11:26:10;6.80;;;4.67;;
68923;SDS011;55961;52.156;20.942;2023-08-21T11:28:36;7.00;;;4.63;;
68923;SDS011;55961;52.156;20.942;2023-08-21T11:31:04;6.47;;;4.00;;
68923;SDS011;55961;52.156;20.942;2023-08-21T11:33:31;6.80;;;4.00;;
68923;SDS011;55961;52.156;20.942;2023-08-21T11:35:58;6.10;;;4.20;;
68923;SDS011;55961;52.156;20.942;2023-08-21T11:38:25;5.40;;;4.43;;
68923;SDS011;55961;52.156;20.942;2023-08-21T11:43:35;6.22;;;4.95;;
68923;SDS011;55961;52.156;20.942;2023-08-21T11:46:02;5.68;;;4.40;;
68923;SDS011;55961;52.156;20.942;2023-08-21T11:48:29;6.38;;;4.60;;
68923;SDS011;55961;52.156;20.942;2023-08-21T11:50:55;8.07;;;4.53;;
68923;SDS011;55961;52.156;20.942;2023-08-21T11:53:31;6.65;;;4.53;;
68923;SDS011;55961;52.156;20.942;2023-08-21T11:56:13;7.93;;;5.18;;
68923;SDS011;55961;52.156;20.942;2023-08-21T11:58:41;6.93;;;4.88;;
68923;SDS011;55961;52.156;20.942;2023-08-21T12:01:08;8.90;;;4.75;;
68923;SDS011;55961;52.156;20.942;2023-08-21T12:03:35;7.57;;;5.33;;
68923;SDS011;55961;52.156;20.942;2023-08-21T12:06:06;6.82;;;4.90;;
68923;SDS011;55961;52.156;20.942;2023-08-21T12:08:33;7.65;;;4.90;;
68923;SDS011;55961;52.156;20.942;2023-08-21T12:11:00;8.55;;;4.80;;
68923;SDS011;55961;52.156;20.942;2023-08-21T12:13:27;5.85;;;4.63;;
68923;SDS011;55961;52.156;20.942;2023-08-21T12:15:53;8.50;;;4.00;;
68923;SDS011;55961;52.156;20.942;2023-08-21T12:18:18;6.10;;;4.53;;
68923;SDS011;55961;52.156;20.942;2023-08-21T12:20:45;6.28;;;3.90;;
68923;SDS011;55961;52.156;20.942;2023-08-21T12:23:10;6.33;;;4.20;;
68923;SDS011;55961;52.156;20.942;2023-08-21T12:25:36;7.47;;;3.70;;
68923;SDS011;55961;52.156;20.942;2023-08-21T12:28:02;7.05;;;3.50;;
68923;SDS011;55961;52.156;20.942;2023-08-21T12:30:29;5.72;;;3.75;;
68923;SDS011;55961;52.156;20.942;2023-08-21T12:32:55;7.40;;;3.70;;
68923;SDS011;55961;52.156;20.942;2023-08-21T12:35:21;7.95;;;3.47;;
68923;SDS011;55961;52.156;20.942;2023-08-21T12:37:46;5.93;;;3.78;;
68923;SDS011;55961;52.156;20.942;2023-08-21T12:40:12;6.03;;;3.80;;
68923;SDS011;55961;52.156;20.942;2023-08-21T12:42:38;6.30;;;3.53;;
68923;SDS011;55961;52.156;20.942;2023-08-21T12:45:04;5.50;;;3.08;;
68923;SDS011;55961;52.156;20.942;2023-08-21T12:47:30;6.43;;;3.45;;
68923;SDS011;55961;52.156;20.942;2023-08-21T12:49:56;6.35;;;3.40;;
68923;SDS011;55961;52.156;20.942;2023-08-21T12:52:22;5.77;;;3.30;;
68923;SDS011;55961;52.156;20.942;2023-08-21T12:54:48;4.70;;;2.83;;
68923;SDS011;55961;52.156;20.942;2023-08-21T12:57:14;5.15;;;3.13;;
68923;SDS011;55961;52.156;20.942;2023-08-21T12:59:42;6.30;;;3.00;;
68923;SDS011;55961;52.156;20.942;2023-08-21T13:02:08;4.65;;;2.70;;
68923;SDS011;55961;52.156;20.942;2023-08-21T13:04:34;8.50;;;3.20;;
68923;SDS011;55961;52.156;20.942;2023-08-21T13:07:00;5.85;;;2.70;;
68923;SDS011;55961;52.156;20.942;2023-08-21T13:09:26;5.10;;;2.60;;
68923;SDS011;55961;52.156;20.942;2023-08-21T13:11:53;7.45;;;2.72;;
68923;SDS011;55961;52.156;20.942;2023-08-21T13:14:19;4.25;;;2.40;;
68923;SDS011;55961;52.156;20.942;2023-08-21T13:16:45;5.17;;;2.43;;
68923;SDS011;55961;52.156;20.942;2023-08-21T13:19:11;7.53;;;2.45;;
68923;SDS011;55961;52.156;20.942;2023-08-21T13:21:37;8.13;;;3.17;;
68923;SDS011;55961;52.156;20.942;2023-08-21T13:24:03;4.95;;;2.92;;
68923;SDS011;55961;52.156;20.942;2023-08-21T13:26:30;6.67;;;2.57;;
68923;SDS011;55961;52.156;20.942;2023-08-21T13:28:56;6.50;;;2.95;;
68923;SDS011;55961;52.156;20.942;2023-08-21T13:31:22;5.32;;;2.50;;
68923;SDS011;55961;52.156;20.942;2023-08-21T13:33:48;4.55;;;2.47;;
68923;SDS011;55961;52.156;20.942;2023-08-21T13:36:15;5.13;;;3.17;;
68923;SDS011;55961;52.156;20.942;2023-08-21T13:38:43;4.40;;;2.28;;
68923;SDS011;55961;52.156;20.942;2023-08-21T13:41:08;4.38;;;2.50;;
68923;SDS011;55961;52.156;20.942;2023-08-21T13:43:35;5.47;;;2.80;;
68923;SDS011;55961;52.156;20.942;2023-08-21T13:46:01;4.63;;;2.57;;
68923;SDS011;55961;52.156;20.942;2023-08-21T13:48:31;4.20;;;2.50;;
68923;SDS011;55961;52.156;20.942;2023-08-21T13:50:57;5.40;;;2.53;;
68923;SDS011;55961;52.156;20.942;2023-08-21T13:53:23;5.90;;;3.10;;
68923;SDS011;55961;52.156;20.942;2023-08-21T13:55:49;5.73;;;2.40;;
68923;SDS011;55961;52.156;20.942;2023-08-21T13:58:16;5.28;;;2.67;;
68923;SDS011;55961;52.156;20.942;2023-08-21T14:00:42;7.30;;;2.70;;
68923;SDS011;55961;52.156;20.942;2023-08-21T14:03:10;6.22;;;2.45;;
68923;SDS011;55961;52.156;20.942;2023-08-21T14:05:36;4.32;;;2.58;;
68923;SDS011;55961;52.156;20.942;2023-08-21T14:08:02;5.37;;;2.70;;
68923;SDS011;55961;52.156;20.942;2023-08-21T14:10:28;7.45;;;2.80;;
68923;SDS011;55961;52.156;20.942;2023-08-21T14:12:56;5.88;;;2.63;;
68923;SDS011;55961;52.156;20.942;2023-08-21T14:15:22;5.95;;;2.40;;
68923;SDS011;55961;52.156;20.942;2023-08-21T14:17:49;5.95;;;2.63;;
68923;SDS011;55961;52.156;20.942;2023-08-21T14:20:15;4.20;;;2.63;;
68923;SDS011;55961;52.156;20.942;2023-08-21T14:22:41;4.57;;;3.03;;